Kirishima Maru No.5 — JD2506 — position and weather

sailwx.info

Track history (hours):
 
Tides and Currents Weather Stations Pressure Air Temp Water Temp Dewpoint Dewpoint Depression Visibility Wind Speed Wind Dir Waves Ship Positions

Kirishima Maru No.5

Last reported at 2018-Feb-18 17:45 UTC. Time now 2018-Feb-19 15:32 UTC.
Position N 34°52' E 139°60'.

Length 105 m; draft 5.4 m.

Type: Tanker. MMSI: 431000338.

Date/timePositionNaut miles runAvg speedWind from/ knotsBaromVisibWave heightAir tempDewpointWater temp
2018-Feb-18 17:45N 34°52' E 139°60'2816.0
2018-Feb-18 16:01N 34°40' E 139°30'116.5
2018-Feb-18 15:59N 34°39' E 139°29'1115.6
2018-Feb-18 15:18N 34°37' E 139°17'516.5
2018-Feb-18 15:00N 34°36' E 139°11'916.6
2018-Feb-18 14:27N 34°33' E 139°00'1715.6
2018-Feb-18 13:23N 34°32' E 138°40'715.3
2018-Feb-18 12:55N 34°31' E 138°31'615.3
2018-Feb-18 12:30N 34°31' E 138°24'815.6
2018-Feb-18 12:00N 34°31' E 138°14'4414.9
2018-Feb-18 09:03N 34°32' E 137°21'315.1
2018-Feb-18 08:52N 34°32' E 137°18'2013.0
2018-Feb-18 07:19N 34°38' E 136°54'514.5
2018-Feb-18 07:00N 34°41' E 136°50'815.2
2018-Feb-18 06:30N 34°47' E 136°46'815.2
2018-Feb-18 06:00N 34°55' E 136°46'612.9
2018-Feb-18 05:31N 35°00' E 136°51'0 0.7
2018-Feb-18 04:59N 35°00' E 136°51'0 0.0
2018-Feb-18 04:29N 35°00' E 136°51'0 0.0
2018-Feb-18 03:59N 35°00' E 136°51'0 0.0
2018-Feb-18 03:29N 35°00' E 136°51'0 0.0
2018-Feb-18 02:59N 35°00' E 136°51'0 0.0
2018-Feb-18 02:29N 35°00' E 136°51'0 0.0
2018-Feb-18 01:59N 35°00' E 136°51'0 0.0
2018-Feb-18 01:29N 35°00' E 136°51'0 0.0
2018-Feb-18 00:59N 35°00' E 136°51'0 0.0
2018-Feb-18 00:29N 35°00' E 136°51'0 0.0
2018-Feb-17 23:59N 35°00' E 136°51'0 1.0
2018-Feb-17 23:30N 35°00' E 136°51'3 6.4
2018-Feb-17 23:00N 34°58' E 136°48'3 5.5
2018-Feb-17 22:30N 34°56' E 136°45'1 1.6
2018-Feb-17 22:00N 34°56' E 136°46'4 8.2
2018-Feb-17 21:30N 34°51' E 136°46'713.0
2018-Feb-17 21:00N 34°45' E 136°48'713.8
2018-Feb-17 20:30N 34°39' E 136°53'1013.6
2018-Feb-17 19:46N 34°33' E 137°02'813.2
2018-Feb-17 19:10N 34°32' E 137°11'213.4
2018-Feb-17 19:00N 34°33' E 137°14'3612.6
2018-Feb-17 16:09N 34°35' E 137°58'511.9
2018-Feb-17 15:44N 34°34' E 138°04'510.9
2018-Feb-17 15:14N 34°33' E 138°10'3 9.7
2018-Feb-17 14:53N 34°32' E 138°14'410.3
2018-Feb-17 14:27N 34°34' E 138°19'611.5
2018-Feb-17 13:56N 34°37' E 138°25'510.5
2018-Feb-17 13:30N 34°37' E 138°31'5 9.0
2018-Feb-17 12:55N 34°36' E 138°37'4 7.5
2018-Feb-17 12:23N 34°35' E 138°42'4 8.5
2018-Feb-17 11:56N 34°35' E 138°47'4 7.7
2018-Feb-17 11:25N 34°35' E 138°51'3 8.4
2018-Feb-17 11:00N 34°36' E 138°55'610.4
2018-Feb-17 10:27N 34°39' E 139°01'813.8
2018-Feb-17 09:52N 34°46' E 139°07'713.9
2018-Feb-17 09:21N 34°51' E 139°12'513.2
2018-Feb-17 09:00N 34°55' E 139°16'612.3
2018-Feb-17 08:31N 34°58' E 139°22'811.6
2018-Feb-17 07:48N 35°02' E 139°31'412.7
2018-Feb-17 07:30N 35°03' E 139°35'713.9
2018-Feb-17 07:00N 35°06' E 139°43'714.2
2018-Feb-17 06:31N 35°13' E 139°46'612.0
2018-Feb-17 06:00N 35°18' E 139°44'612.1
2018-Feb-17 05:30N 35°24' E 139°43'714.0
2018-Feb-17 05:01N 35°29' E 139°50'713.8
2018-Feb-17 04:30N 35°32' E 139°58'4 7.3
2018-Feb-17 03:59N 35°31' E 140°02'0 0.0
2018-Feb-16 23:25N 35°31' E 140°02'1 2.6
2018-Feb-16 22:59N 35°31' E 140°01'1 2.1
2018-Feb-16 22:30N 35°32' E 140°01'0 0.0
2018-Feb-16 22:00N 35°32' E 140°01'0 0.1
2018-Feb-16 21:29N 35°32' E 140°01'0 0.0
2018-Feb-16 21:00N 35°32' E 140°01'0 0.0
2018-Feb-16 20:30N 35°32' E 140°01'0 0.0
2018-Feb-16 20:00N 35°32' E 140°01'0 0.0
2018-Feb-16 19:30N 35°32' E 140°01'0 0.0
2018-Feb-16 18:59N 35°32' E 140°01'0 0.0
2018-Feb-16 18:30N 35°32' E 140°01'0 0.0
2018-Feb-16 18:00N 35°32' E 140°01'0 0.0
2018-Feb-16 17:30N 35°32' E 140°01'0 0.0
2018-Feb-16 17:00N 35°32' E 140°01'0 0.0
2018-Feb-16 16:30N 35°32' E 140°01'0 0.0
2018-Feb-16 16:00N 35°32' E 140°01'0 0.0
2018-Feb-16 15:30N 35°32' E 140°01'0 0.1
2018-Feb-16 14:59N 35°32' E 140°01'0 0.0
2018-Feb-16 14:28N 35°32' E 140°01'0 0.0
2018-Feb-16 14:00N 35°32' E 140°01'0 0.0
2018-Feb-16 13:30N 35°32' E 140°01'0 0.0
2018-Feb-16 13:00N 35°32' E 140°01'0 0.0
2018-Feb-16 12:30N 35°32' E 140°01'2 4.4
2018-Feb-16 12:00N 35°32' E 139°58'714.1
2018-Feb-16 11:30N 35°31' E 139°49'3 0.5
2018-Feb-16 05:51N 35°31' E 139°46'0 1.2
2018-Feb-16 05:30N 35°31' E 139°46'4 8.4
2018-Feb-16 05:00N 35°28' E 139°43'4 7.6
2018-Feb-16 04:30N 35°24' E 139°45'0 0.0
2018-Feb-16 03:59N 35°24' E 139°45'0 0.0
2018-Feb-16 03:29N 35°24' E 139°45'0 0.1
2018-Feb-16 02:59N 35°24' E 139°45'0 0.0
2018-Feb-16 02:29N 35°24' E 139°45'0 0.0
2018-Feb-16 01:59N 35°24' E 139°45'0 0.0
2018-Feb-16 01:29N 35°24' E 139°45'0 0.0
2018-Feb-16 00:59N 35°24' E 139°45'0 0.0
2018-Feb-16 00:29N 35°24' E 139°45'0 0.0
2018-Feb-15 23:59N 35°24' E 139°45'0 0.6
2018-Feb-15 23:30N 35°24' E 139°45'510.8
2018-Feb-15 23:00N 35°18' E 139°44'611.9
2018-Feb-15 22:30N 35°13' E 139°47'713.5
2018-Feb-15 22:00N 35°06' E 139°45'18 9.1
2018-Feb-15 20:04N 34°53' E 139°60'414.7
2018-Feb-15 19:49N 34°55' E 140°04'514.4
2018-Feb-15 19:26N 34°57' E 140°09'  
2018-Feb-12 21:48N 34°56' E 140°08'3515.1
2018-Feb-12 19:28N 34°40' E 139°31'816.7
2018-Feb-12 18:59N 34°37' E 139°21'816.3
2018-Feb-12 18:30N 34°36' E 139°12'1016.2
2018-Feb-12 17:55N 34°33' E 139°01'715.9
2018-Feb-12 17:29N 34°32' E 138°53'1015.6
2018-Feb-12 16:50N 34°32' E 138°40'615.0
2018-Feb-12 16:27N 34°32' E 138°34'814.9
2018-Feb-12 15:55N 34°31' E 138°24'4915.2
2018-Feb-12 12:40N 34°32' E 137°24'515.2
2018-Feb-12 12:19N 34°32' E 137°17'515.5
2018-Feb-12 12:00N 34°32' E 137°12'1013.9
2018-Feb-12 11:15N 34°34' E 136°59'615.2
2018-Feb-12 10:54N 34°38' E 136°54'615.1
2018-Feb-12 10:30N 34°42' E 136°49'815.3
2018-Feb-12 10:00N 34°49' E 136°46'815.0
2018-Feb-12 09:30N 34°57' E 136°47'510.3
2018-Feb-12 09:00N 35°00' E 136°51'0 0.1
2018-Feb-12 08:30N 35°00' E 136°51'0 0.0
2018-Feb-12 08:00N 35°00' E 136°51'0 0.0
2018-Feb-12 07:30N 35°00' E 136°51'0 0.0
2018-Feb-12 07:00N 35°00' E 136°51'0 0.0
2018-Feb-12 06:30N 35°00' E 136°51'0 0.0
2018-Feb-12 06:00N 35°00' E 136°51'0 0.1
2018-Feb-12 05:30N 35°00' E 136°51'0 0.1
2018-Feb-12 05:00N 35°00' E 136°51'0 0.0
2018-Feb-12 04:30N 35°00' E 136°51'0 0.0
2018-Feb-12 04:00N 35°00' E 136°51'0 0.1
2018-Feb-12 03:30N 35°00' E 136°51'0 0.1
2018-Feb-12 03:00N 35°00' E 136°51'0 0.0
2018-Feb-12 02:30N 35°00' E 136°51'0 0.0
2018-Feb-12 01:57N 35°00' E 136°51'0 0.1
2018-Feb-12 01:30N 35°00' E 136°51'0 0.1
2018-Feb-12 01:00N 35°00' E 136°51'0 0.0
2018-Feb-12 00:30N 35°00' E 136°51'0 0.1
2018-Feb-12 00:00N 35°00' E 136°51'0 0.2
2018-Feb-11 23:31N 35°00' E 136°51'3 5.8
2018-Feb-11 23:01N 34°58' E 136°48'611.0
2018-Feb-11 22:30N 34°53' E 136°46'713.4
2018-Feb-11 22:00N 34°46' E 136°48'713.4
2018-Feb-11 21:29N 34°40' E 136°52'713.7
2018-Feb-11 20:59N 34°36' E 136°58'1112.7
2018-Feb-11 20:08N 34°32' E 137°10'212.7
2018-Feb-11 19:57N 34°32' E 137°13'4613.0
2018-Feb-11 16:28N 34°31' E 138°08'612.1
2018-Feb-11 15:57N 34°31' E 138°16'612.0
2018-Feb-11 15:26N 34°32' E 138°23'811.9
2018-Feb-11 14:45N 34°32' E 138°33'310.9
2018-Feb-11 14:27N 34°32' E 138°37'510.3
2018-Feb-11 13:59N 34°33' E 138°43'4 8.1
2018-Feb-11 13:29N 34°34' E 138°48'4 7.1
2018-Feb-11 12:59N 34°35' E 138°52'3 6.9
2018-Feb-11 12:30N 34°36' E 138°56'6 9.8
2018-Feb-11 11:55N 34°39' E 139°01'511.1
2018-Feb-11 11:30N 34°43' E 139°05'611.7
2018-Feb-11 10:58N 34°48' E 139°09'511.3
2018-Feb-11 10:30N 34°52' E 139°13'611.7
2018-Feb-11 10:00N 34°55' E 139°19'611.6
2018-Feb-11 09:30N 34°58' E 139°25'712.3
2018-Feb-11 08:58N 35°01' E 139°32'612.6
2018-Feb-11 08:30N 35°04' E 139°39'612.3
2018-Feb-11 08:00N 35°08' E 139°44'612.9
2018-Feb-11 07:31N 35°14' E 139°46'612.4
2018-Feb-11 07:00N 35°20' E 139°43'612.7
2018-Feb-11 06:30N 35°26' E 139°45'714.2
2018-Feb-11 06:00N 35°30' E 139°52'713.7
2018-Feb-11 05:31N 35°31' E 140°00'2 3.3
2018-Feb-11 05:00N 35°31' E 140°02'0 0.0
2018-Feb-10 21:49N 35°31' E 140°02'1 4.9
2018-Feb-10 21:31N 35°32' E 140°01'4 7.5
2018-Feb-10 21:00N 35°35' E 140°04'2 3.4
2018-Feb-10 20:28N 35°36' E 140°06'0 0.0
2018-Feb-10 19:55N 35°36' E 140°06'0 0.0
2018-Feb-10 19:28N 35°36' E 140°06'0 0.0
2018-Feb-10 18:58N 35°36' E 140°06'0 0.0
2018-Feb-10 18:28N 35°36' E 140°06'0 0.0
2018-Feb-10 17:58N 35°36' E 140°06'0 0.0
2018-Feb-10 17:28N 35°36' E 140°06'0 0.0
2018-Feb-10 16:58N 35°36' E 140°06'0 0.0
2018-Feb-10 16:28N 35°36' E 140°06'0 0.0
2018-Feb-10 15:58N 35°36' E 140°06'0 0.0
2018-Feb-10 15:28N 35°36' E 140°06'0 0.0
2018-Feb-10 14:58N 35°36' E 140°06'0 0.0
2018-Feb-10 14:28N 35°36' E 140°06'0 0.0
2018-Feb-10 13:58N 35°36' E 140°06'0 0.0
2018-Feb-10 13:28N 35°36' E 140°06'0 0.0
2018-Feb-10 12:58N 35°36' E 140°06'0 0.0
2018-Feb-10 12:28N 35°36' E 140°06'0 0.0
2018-Feb-10 11:58N 35°36' E 140°06'0 0.0
2018-Feb-10 11:28N 35°36' E 140°06'0 0.0
2018-Feb-10 10:58N 35°36' E 140°06'0 0.0
2018-Feb-10 10:28N 35°36' E 140°06'0 0.0
2018-Feb-10 09:58N 35°36' E 140°06'0 0.0
2018-Feb-10 09:28N 35°36' E 140°06'0 0.0
2018-Feb-10 08:58N 35°36' E 140°06'0 0.0
2018-Feb-10 08:28N 35°36' E 140°06'0 0.0
2018-Feb-10 07:58N 35°36' E 140°06'0 0.0
2018-Feb-10 07:28N 35°36' E 140°06'0 0.0
2018-Feb-10 06:58N 35°36' E 140°06'0 0.0
2018-Feb-10 06:28N 35°36' E 140°06'0 0.0
2018-Feb-10 05:58N 35°36' E 140°06'0 0.0
2018-Feb-10 05:28N 35°36' E 140°06'0 0.0
2018-Feb-10 04:58N 35°36' E 140°06'0 0.0
2018-Feb-10 04:28N 35°36' E 140°06'0 0.0
2018-Feb-10 03:58N 35°36' E 140°06'0 0.0
2018-Feb-10 03:28N 35°36' E 140°06'0 0.0
2018-Feb-10 02:58N 35°36' E 140°06'0 0.0
2018-Feb-10 02:25N 35°36' E 140°06'0 0.0
2018-Feb-10 01:58N 35°36' E 140°06'0 0.0
2018-Feb-10 01:28N 35°36' E 140°06'0 0.0
2018-Feb-10 00:58N 35°36' E 140°06'0 0.0
2018-Feb-10 00:28N 35°36' E 140°06'0 0.0
2018-Feb-09 23:58N 35°36' E 140°06'0 0.0
2018-Feb-09 23:28N 35°36' E 140°06'0 0.0
2018-Feb-09 22:58N 35°36' E 140°06'0 0.0
2018-Feb-09 22:46N 35°36' E 140°06'  
Track history (hours):
 
Tides and Currents Weather Stations Pressure Air Temp Water Temp Dewpoint Dewpoint Depression Visibility Wind Speed Wind Dir Waves Ship Positions

Kirishima Maru No.5

Last reported at 2018-Feb-18 17:45 UTC. Time now 2018-Feb-19 15:32 UTC.
Position N 34°52' E 139°60'.

Length 105 m; draft 5.4 m.

Type: Tanker. MMSI: 431000338.

Date/timePositionNaut miles runAvg speedWind from/ knotsBaromVisibWave heightAir tempDewpointWater temp
2018-Feb-18 17:45N 34°52' E 139°60'2816.0
2018-Feb-18 16:01N 34°40' E 139°30'116.5
2018-Feb-18 15:59N 34°39' E 139°29'1115.6
2018-Feb-18 15:18N 34°37' E 139°17'516.5
2018-Feb-18 15:00N 34°36' E 139°11'916.6
2018-Feb-18 14:27N 34°33' E 139°00'1715.6
2018-Feb-18 13:23N 34°32' E 138°40'715.3
2018-Feb-18 12:55N 34°31' E 138°31'615.3
2018-Feb-18 12:30N 34°31' E 138°24'815.6
2018-Feb-18 12:00N 34°31' E 138°14'4414.9
2018-Feb-18 09:03N 34°32' E 137°21'315.1
2018-Feb-18 08:52N 34°32' E 137°18'2013.0
2018-Feb-18 07:19N 34°38' E 136°54'514.5
2018-Feb-18 07:00N 34°41' E 136°50'815.2
2018-Feb-18 06:30N 34°47' E 136°46'815.2
2018-Feb-18 06:00N 34°55' E 136°46'612.9
2018-Feb-18 05:31N 35°00' E 136°51'0 0.7
2018-Feb-18 04:59N 35°00' E 136°51'0 0.0
2018-Feb-18 04:29N 35°00' E 136°51'0 0.0
2018-Feb-18 03:59N 35°00' E 136°51'0 0.0
2018-Feb-18 03:29N 35°00' E 136°51'0 0.0
2018-Feb-18 02:59N 35°00' E 136°51'0 0.0
2018-Feb-18 02:29N 35°00' E 136°51'0 0.0
2018-Feb-18 01:59N 35°00' E 136°51'0 0.0
2018-Feb-18 01:29N 35°00' E 136°51'0 0.0
2018-Feb-18 00:59N 35°00' E 136°51'0 0.0
2018-Feb-18 00:29N 35°00' E 136°51'0 0.0
2018-Feb-17 23:59N 35°00' E 136°51'0 1.0
2018-Feb-17 23:30N 35°00' E 136°51'3 6.4
2018-Feb-17 23:00N 34°58' E 136°48'3 5.5
2018-Feb-17 22:30N 34°56' E 136°45'1 1.6
2018-Feb-17 22:00N 34°56' E 136°46'4 8.2
2018-Feb-17 21:30N 34°51' E 136°46'713.0
2018-Feb-17 21:00N 34°45' E 136°48'713.8
2018-Feb-17 20:30N 34°39' E 136°53'1013.6
2018-Feb-17 19:46N 34°33' E 137°02'813.2
2018-Feb-17 19:10N 34°32' E 137°11'213.4
2018-Feb-17 19:00N 34°33' E 137°14'3612.6
2018-Feb-17 16:09N 34°35' E 137°58'511.9
2018-Feb-17 15:44N 34°34' E 138°04'510.9
2018-Feb-17 15:14N 34°33' E 138°10'3 9.7
2018-Feb-17 14:53N 34°32' E 138°14'410.3
2018-Feb-17 14:27N 34°34' E 138°19'611.5
2018-Feb-17 13:56N 34°37' E 138°25'510.5
2018-Feb-17 13:30N 34°37' E 138°31'5 9.0
2018-Feb-17 12:55N 34°36' E 138°37'4 7.5
2018-Feb-17 12:23N 34°35' E 138°42'4 8.5
2018-Feb-17 11:56N 34°35' E 138°47'4 7.7
2018-Feb-17 11:25N 34°35' E 138°51'3 8.4
2018-Feb-17 11:00N 34°36' E 138°55'610.4
2018-Feb-17 10:27N 34°39' E 139°01'813.8
2018-Feb-17 09:52N 34°46' E 139°07'713.9
2018-Feb-17 09:21N 34°51' E 139°12'513.2
2018-Feb-17 09:00N 34°55' E 139°16'612.3
2018-Feb-17 08:31N 34°58' E 139°22'811.6
2018-Feb-17 07:48N 35°02' E 139°31'412.7
2018-Feb-17 07:30N 35°03' E 139°35'713.9
2018-Feb-17 07:00N 35°06' E 139°43'714.2
2018-Feb-17 06:31N 35°13' E 139°46'612.0
2018-Feb-17 06:00N 35°18' E 139°44'612.1
2018-Feb-17 05:30N 35°24' E 139°43'714.0
2018-Feb-17 05:01N 35°29' E 139°50'713.8
2018-Feb-17 04:30N 35°32' E 139°58'4 7.3
2018-Feb-17 03:59N 35°31' E 140°02'0 0.0
2018-Feb-16 23:25N 35°31' E 140°02'1 2.6
2018-Feb-16 22:59N 35°31' E 140°01'1 2.1
2018-Feb-16 22:30N 35°32' E 140°01'0 0.0
2018-Feb-16 22:00N 35°32' E 140°01'0 0.1
2018-Feb-16 21:29N 35°32' E 140°01'0 0.0
2018-Feb-16 21:00N 35°32' E 140°01'0 0.0
2018-Feb-16 20:30N 35°32' E 140°01'0 0.0
2018-Feb-16 20:00N 35°32' E 140°01'0 0.0
2018-Feb-16 19:30N 35°32' E 140°01'0 0.0
2018-Feb-16 18:59N 35°32' E 140°01'0 0.0
2018-Feb-16 18:30N 35°32' E 140°01'0 0.0
2018-Feb-16 18:00N 35°32' E 140°01'0 0.0
2018-Feb-16 17:30N 35°32' E 140°01'0 0.0
2018-Feb-16 17:00N 35°32' E 140°01'0 0.0
2018-Feb-16 16:30N 35°32' E 140°01'0 0.0
2018-Feb-16 16:00N 35°32' E 140°01'0 0.0
2018-Feb-16 15:30N 35°32' E 140°01'0 0.1
2018-Feb-16 14:59N 35°32' E 140°01'0 0.0
2018-Feb-16 14:28N 35°32' E 140°01'0 0.0
2018-Feb-16 14:00N 35°32' E 140°01'0 0.0
2018-Feb-16 13:30N 35°32' E 140°01'0 0.0
2018-Feb-16 13:00N 35°32' E 140°01'0 0.0
2018-Feb-16 12:30N 35°32' E 140°01'2 4.4
2018-Feb-16 12:00N 35°32' E 139°58'714.1
2018-Feb-16 11:30N 35°31' E 139°49'3 0.5
2018-Feb-16 05:51N 35°31' E 139°46'0 1.2
2018-Feb-16 05:30N 35°31' E 139°46'4 8.4
2018-Feb-16 05:00N 35°28' E 139°43'4 7.6
2018-Feb-16 04:30N 35°24' E 139°45'0 0.0
2018-Feb-16 03:59N 35°24' E 139°45'0 0.0
2018-Feb-16 03:29N 35°24' E 139°45'0 0.1
2018-Feb-16 02:59N 35°24' E 139°45'0 0.0
2018-Feb-16 02:29N 35°24' E 139°45'0 0.0
2018-Feb-16 01:59N 35°24' E 139°45'0 0.0
2018-Feb-16 01:29N 35°24' E 139°45'0 0.0
2018-Feb-16 00:59N 35°24' E 139°45'0 0.0
2018-Feb-16 00:29N 35°24' E 139°45'0 0.0
2018-Feb-15 23:59N 35°24' E 139°45'0 0.6
2018-Feb-15 23:30N 35°24' E 139°45'510.8
2018-Feb-15 23:00N 35°18' E 139°44'611.9
2018-Feb-15 22:30N 35°13' E 139°47'713.5
2018-Feb-15 22:00N 35°06' E 139°45'18 9.1
2018-Feb-15 20:04N 34°53' E 139°60'414.7
2018-Feb-15 19:49N 34°55' E 140°04'514.4
2018-Feb-15 19:26N 34°57' E 140°09'  
2018-Feb-12 21:48N 34°56' E 140°08'3515.1
2018-Feb-12 19:28N 34°40' E 139°31'816.7
2018-Feb-12 18:59N 34°37' E 139°21'816.3
2018-Feb-12 18:30N 34°36' E 139°12'1016.2
2018-Feb-12 17:55N 34°33' E 139°01'715.9
2018-Feb-12 17:29N 34°32' E 138°53'1015.6
2018-Feb-12 16:50N 34°32' E 138°40'615.0
2018-Feb-12 16:27N 34°32' E 138°34'814.9
2018-Feb-12 15:55N 34°31' E 138°24'4915.2
2018-Feb-12 12:40N 34°32' E 137°24'515.2
2018-Feb-12 12:19N 34°32' E 137°17'515.5
2018-Feb-12 12:00N 34°32' E 137°12'1013.9
2018-Feb-12 11:15N 34°34' E 136°59'615.2
2018-Feb-12 10:54N 34°38' E 136°54'615.1
2018-Feb-12 10:30N 34°42' E 136°49'815.3
2018-Feb-12 10:00N 34°49' E 136°46'815.0
2018-Feb-12 09:30N 34°57' E 136°47'510.3
2018-Feb-12 09:00N 35°00' E 136°51'0 0.1
2018-Feb-12 08:30N 35°00' E 136°51'0 0.0
2018-Feb-12 08:00N 35°00' E 136°51'0 0.0
2018-Feb-12 07:30N 35°00' E 136°51'0 0.0
2018-Feb-12 07:00N 35°00' E 136°51'0 0.0
2018-Feb-12 06:30N 35°00' E 136°51'0 0.0
2018-Feb-12 06:00N 35°00' E 136°51'0 0.1
2018-Feb-12 05:30N 35°00' E 136°51'0 0.1
2018-Feb-12 05:00N 35°00' E 136°51'0 0.0
2018-Feb-12 04:30N 35°00' E 136°51'0 0.0
2018-Feb-12 04:00N 35°00' E 136°51'0 0.1
2018-Feb-12 03:30N 35°00' E 136°51'0 0.1
2018-Feb-12 03:00N 35°00' E 136°51'0 0.0
2018-Feb-12 02:30N 35°00' E 136°51'0 0.0
2018-Feb-12 01:57N 35°00' E 136°51'0 0.1
2018-Feb-12 01:30N 35°00' E 136°51'0 0.1
2018-Feb-12 01:00N 35°00' E 136°51'0 0.0
2018-Feb-12 00:30N 35°00' E 136°51'0 0.1
2018-Feb-12 00:00N 35°00' E 136°51'0 0.2
2018-Feb-11 23:31N 35°00' E 136°51'3 5.8
2018-Feb-11 23:01N 34°58' E 136°48'611.0
2018-Feb-11 22:30N 34°53' E 136°46'713.4
2018-Feb-11 22:00N 34°46' E 136°48'713.4
2018-Feb-11 21:29N 34°40' E 136°52'713.7
2018-Feb-11 20:59N 34°36' E 136°58'1112.7
2018-Feb-11 20:08N 34°32' E 137°10'212.7
2018-Feb-11 19:57N 34°32' E 137°13'4613.0
2018-Feb-11 16:28N 34°31' E 138°08'612.1
2018-Feb-11 15:57N 34°31' E 138°16'612.0
2018-Feb-11 15:26N 34°32' E 138°23'811.9
2018-Feb-11 14:45N 34°32' E 138°33'310.9
2018-Feb-11 14:27N 34°32' E 138°37'510.3
2018-Feb-11 13:59N 34°33' E 138°43'4 8.1
2018-Feb-11 13:29N 34°34' E 138°48'4 7.1
2018-Feb-11 12:59N 34°35' E 138°52'3 6.9
2018-Feb-11 12:30N 34°36' E 138°56'6 9.8
2018-Feb-11 11:55N 34°39' E 139°01'511.1
2018-Feb-11 11:30N 34°43' E 139°05'611.7
2018-Feb-11 10:58N 34°48' E 139°09'511.3
2018-Feb-11 10:30N 34°52' E 139°13'611.7
2018-Feb-11 10:00N 34°55' E 139°19'611.6
2018-Feb-11 09:30N 34°58' E 139°25'712.3
2018-Feb-11 08:58N 35°01' E 139°32'612.6
2018-Feb-11 08:30N 35°04' E 139°39'612.3
2018-Feb-11 08:00N 35°08' E 139°44'612.9
2018-Feb-11 07:31N 35°14' E 139°46'612.4
2018-Feb-11 07:00N 35°20' E 139°43'612.7
2018-Feb-11 06:30N 35°26' E 139°45'714.2
2018-Feb-11 06:00N 35°30' E 139°52'713.7
2018-Feb-11 05:31N 35°31' E 140°00'2 3.3
2018-Feb-11 05:00N 35°31' E 140°02'0 0.0
2018-Feb-10 21:49N 35°31' E 140°02'1 4.9
2018-Feb-10 21:31N 35°32' E 140°01'4 7.5
2018-Feb-10 21:00N 35°35' E 140°04'2 3.4
2018-Feb-10 20:28N 35°36' E 140°06'0 0.0
2018-Feb-10 19:55N 35°36' E 140°06'0 0.0
2018-Feb-10 19:28N 35°36' E 140°06'0 0.0
2018-Feb-10 18:58N 35°36' E 140°06'0 0.0
2018-Feb-10 18:28N 35°36' E 140°06'0 0.0
2018-Feb-10 17:58N 35°36' E 140°06'0 0.0
2018-Feb-10 17:28N 35°36' E 140°06'0 0.0
2018-Feb-10 16:58N 35°36' E 140°06'0 0.0
2018-Feb-10 16:28N 35°36' E 140°06'0 0.0
2018-Feb-10 15:58N 35°36' E 140°06'0 0.0
2018-Feb-10 15:28N 35°36' E 140°06'0 0.0
2018-Feb-10 14:58N 35°36' E 140°06'0 0.0
2018-Feb-10 14:28N 35°36' E 140°06'0 0.0
2018-Feb-10 13:58N 35°36' E 140°06'0 0.0
2018-Feb-10 13:28N 35°36' E 140°06'0 0.0
2018-Feb-10 12:58N 35°36' E 140°06'0 0.0
2018-Feb-10 12:28N 35°36' E 140°06'0 0.0
2018-Feb-10 11:58N 35°36' E 140°06'0 0.0
2018-Feb-10 11:28N 35°36' E 140°06'0 0.0
2018-Feb-10 10:58N 35°36' E 140°06'0 0.0
2018-Feb-10 10:28N 35°36' E 140°06'0 0.0
2018-Feb-10 09:58N 35°36' E 140°06'0 0.0
2018-Feb-10 09:28N 35°36' E 140°06'0 0.0
2018-Feb-10 08:58N 35°36' E 140°06'0 0.0
2018-Feb-10 08:28N 35°36' E 140°06'0 0.0
2018-Feb-10 07:58N 35°36' E 140°06'0 0.0
2018-Feb-10 07:28N 35°36' E 140°06'0 0.0
2018-Feb-10 06:58N 35°36' E 140°06'0 0.0
2018-Feb-10 06:28N 35°36' E 140°06'0 0.0
2018-Feb-10 05:58N 35°36' E 140°06'0 0.0
2018-Feb-10 05:28N 35°36' E 140°06'0 0.0
2018-Feb-10 04:58N 35°36' E 140°06'0 0.0
2018-Feb-10 04:28N 35°36' E 140°06'0 0.0
2018-Feb-10 03:58N 35°36' E 140°06'0 0.0
2018-Feb-10 03:28N 35°36' E 140°06'0 0.0
2018-Feb-10 02:58N 35°36' E 140°06'0 0.0
2018-Feb-10 02:25N 35°36' E 140°06'0 0.0
2018-Feb-10 01:58N 35°36' E 140°06'0 0.0
2018-Feb-10 01:28N 35°36' E 140°06'0 0.0
2018-Feb-10 00:58N 35°36' E 140°06'0 0.0
2018-Feb-10 00:28N 35°36' E 140°06'0 0.0
2018-Feb-09 23:58N 35°36' E 140°06'0 0.0
2018-Feb-09 23:28N 35°36' E 140°06'0 0.0
2018-Feb-09 22:58N 35°36' E 140°06'0 0.0
2018-Feb-09 22:46N 35°36' E 140°06'  

Dump ship's entire track history